^^

..:: Storico WU ::..




Lo storico viene creato da WUnderground con i dati che la stazione Meteomincio invia al loro server. L' aggiornamento viene fatto ogni 5 minuti circa, tuttavia possono esserci intervalli pił ampi a causa di errori, interruzioni di servizio o problemi nell' invio tramite FTP.


Storico stazione MeteoMincio
Giorno Sommario per Giugno 08, 2022 Unità:  Inglese    Metrico   Entrambi
Giorno Settimana Mese Anno
  Max: Min: Media:
Temperatura: 84.2 °F 60.8 °F 71.2 °F
Dew Point: 68 °F 55.4 °F 62.4 °F
Umidità: 93% 50% 76%
Velocità vento: 11.8mph 0mph 4mph
Raffica: 14.9mph - -
Direzione- - SSE
Pressione: 29.8 in 29.7 in -
Precipitazioni: 0.26 in    
 
 
Tabulato Dati per Giugno 08, 2022
Ora Temperatura Dew Point Pressione Direzione Velocità vento Raffica Umidità Intensità pioggia (oraria) Info solare Situazione
00:04 66.2 °F 60.8 °F 29.8 in West 1.9 mph 3.7 mph 82% 0 in 0.00 W/m2 unknown
00:09 66.2 °F 60.8 °F 29.8 in WNW 1.9 mph 3.7 mph 82% 0 in 0.00 W/m2 unknown
00:14 66.2 °F 60.8 °F 29.8 in WNW 2.5 mph 3.7 mph 82% 0 in 0.00 W/m2 unknown
00:19 66.2 °F 60.8 °F 29.8 in WNW 1.2 mph 3.1 mph 82% 0.01 in 0.00 W/m2 unknown
00:24 66.2 °F 60.8 °F 29.8 in WNW 1.2 mph 2.5 mph 82% 0.01 in 0.00 W/m2 unknown
00:29 66.2 °F 59 °F 29.8 in WNW 1.2 mph 2.5 mph 81% 0.01 in 0.00 W/m2 unknown
00:34 66.2 °F 59 °F 29.8 in WNW 1.2 mph 3.1 mph 81% 0.01 in 0.00 W/m2 unknown
00:39 66.2 °F 59 °F 29.8 in West 1.9 mph 3.7 mph 82% 0.01 in 0.00 W/m2 unknown
00:44 64.4 °F 59 °F 29.8 in West 2.5 mph 3.7 mph 84% 0.01 in 0.00 W/m2 unknown
00:49 64.4 °F 59 °F 29.8 in West 3.1 mph 3.7 mph 84% 0.01 in 0.00 W/m2 unknown
00:54 64.4 °F 59 °F 29.8 in WNW 3.1 mph 3.7 mph 85% 0.01 in 0.00 W/m2 unknown
00:59 64.4 °F 59 °F 29.8 in NW 2.5 mph 3.7 mph 84% 0.01 in 0.00 W/m2 unknown
01:04 64.4 °F 59 °F 29.8 in WNW 1.9 mph 3.7 mph 83% 0.01 in 0.00 W/m2 unknown
01:09 64.4 °F 59 °F 29.8 in WNW 2.5 mph 3.7 mph 83% 0.01 in 0.00 W/m2 unknown
01:14 64.4 °F 59 °F 29.8 in WNW 2.5 mph 3.7 mph 83% 0.01 in 0.00 W/m2 unknown
01:19 64.4 °F 59 °F 29.8 in NW 3.1 mph 3.7 mph 83% 0.01 in 0.00 W/m2 unknown
01:24 64.4 °F 59 °F 29.8 in NW 3.1 mph 3.7 mph 83% 0.01 in 0.00 W/m2 unknown
01:29 64.4 °F 59 °F 29.8 in NW 1.9 mph 3.1 mph 83% 0.01 in 0.00 W/m2 unknown
01:34 64.4 °F 59 °F 29.8 in NW 1.2 mph 2.5 mph 84% 0.01 in 0.00 W/m2 unknown
01:39 64.4 °F 59 °F 29.8 in NW 1.2 mph 2.5 mph 84% 0 in 0.00 W/m2 unknown
01:44 64.4 °F 59 °F 29.8 in NW 1.2 mph 2.5 mph 84% 0 in 0.00 W/m2 unknown
01:49 64.4 °F 59 °F 29.8 in WNW 1.2 mph 3.1 mph 84% 0 in 0.00 W/m2 unknown
01:54 64.4 °F 59 °F 29.8 in NW 1.9 mph 3.7 mph 84% 0 in 0.00 W/m2 unknown
01:59 64.4 °F 59 °F 29.8 in WNW 2.5 mph 3.7 mph 83% 0 in 0.00 W/m2 unknown
02:04 64.4 °F 59 °F 29.8 in WNW 2.5 mph 3.7 mph 83% 0 in 0.00 W/m2 unknown
02:09 62.6 °F 59 °F 29.8 in West 2.5 mph 3.7 mph 83% 0 in 0.00 W/m2 unknown
02:14 62.6 °F 59 °F 29.8 in West 1.9 mph 3.7 mph 84% 0 in 0.00 W/m2 unknown
02:19 62.6 °F 57.2 °F 29.8 in West 2.5 mph 3.7 mph 86% 0 in 0.00 W/m2 unknown
02:24 62.6 °F 57.2 °F 29.8 in West 2.5 mph 3.7 mph 86% 0 in 0.00 W/m2 unknown
02:29 62.6 °F 59 °F 29.8 in West 1.9 mph 3.7 mph 85% 0 in 0.00 W/m2 unknown
02:34 62.6 °F 59 °F 29.8 in West 1.2 mph 3.1 mph 85% 0 in 0.00 W/m2 unknown
02:39 62.6 °F 57.2 °F 29.8 in West 1.2 mph 2.5 mph 84% 0 in 0.00 W/m2 unknown
02:44 62.6 °F 57.2 °F 29.8 in West 1.2 mph 3.7 mph 84% 0 in 0.00 W/m2 unknown
02:49 62.6 °F 57.2 °F 29.8 in West 1.9 mph 3.7 mph 85% 0 in 0.00 W/m2 unknown
02:54 62.6 °F 57.2 °F 29.8 in WSW 1.9 mph 3.7 mph 86% 0 in 0.00 W/m2 unknown
02:59 62.6 °F 57.2 °F 29.8 in WSW 2.5 mph 3.7 mph 87% 0 in 0.00 W/m2 unknown
03:04 62.6 °F 57.2 °F 29.8 in SW 1.9 mph 3.7 mph 87% 0 in 0.00 W/m2 unknown
03:09 62.6 °F 57.2 °F 29.8 in WSW 2.5 mph 3.7 mph 86% 0 in 0.00 W/m2 unknown
03:14 62.6 °F 57.2 °F 29.8 in SW 2.5 mph 3.7 mph 87% 0 in 0.00 W/m2 unknown
03:19 62.6 °F 57.2 °F 29.8 in SW 1.9 mph 3.7 mph 87% 0 in 0.00 W/m2 unknown
03:24 62.6 °F 57.2 °F 29.8 in SW 1.2 mph 3.1 mph 87% 0 in 0.00 W/m2 unknown
03:29 62.6 °F 57.2 °F 29.8 in SW 0.6 mph 2.5 mph 87% 0 in 0.00 W/m2 unknown
03:34 62.6 °F 57.2 °F 29.8 in SW 0.6 mph 2.5 mph 87% 0 in 0.00 W/m2 unknown
03:39 62.6 °F 57.2 °F 29.8 in SW 1.2 mph 2.5 mph 87% 0 in 0.00 W/m2 unknown
03:44 60.8 °F 57.2 °F 29.8 in SW 1.2 mph 2.5 mph 88% 0 in 0.00 W/m2 unknown
03:49 60.8 °F 57.2 °F 29.8 in SW 1.2 mph 2.5 mph 88% 0 in 0.00 W/m2 unknown
03:54 60.8 °F 57.2 °F 29.8 in SW 1.2 mph 2.5 mph 88% 0 in 0.00 W/m2 unknown
03:58 60.8 °F 57.2 °F 29.8 in SW 1.2 mph 2.5 mph 88% 0 in 0.00 W/m2 unknown
04:03 60.8 °F 57.2 °F 29.8 in South 1.2 mph 2.5 mph 89% 0 in 0.00 W/m2 unknown
04:08 60.8 °F 57.2 °F 29.8 in SSE 1.2 mph 1.2 mph 89% 0 in 0.00 W/m2 unknown
04:13 60.8 °F 57.2 °F 29.8 in SE 0.6 mph 1.2 mph 90% 0 in 0.00 W/m2 unknown
04:18 60.8 °F 57.2 °F 29.8 in SSE 0.6 mph 1.2 mph 90% 0 in 0.00 W/m2 unknown
04:23 60.8 °F 57.2 °F 29.8 in WSW 1.2 mph 2.5 mph 90% 0 in 0.00 W/m2 unknown
04:28 60.8 °F 57.2 °F 29.8 in Calm   1.2 mph 90% 0 in 0.00 W/m2 unknown
04:33 60.8 °F 57.2 °F 29.8 in WNW 0.6 mph 1.9 mph 90% 0 in 0.00 W/m2 unknown
04:38 60.8 °F 57.2 °F 29.8 in West 2.5 mph 3.7 mph 89% 0 in 0.00 W/m2 unknown
04:43 60.8 °F 57.2 °F 29.8 in West 2.5 mph 3.7 mph 89% 0 in 0.00 W/m2 unknown
04:48 60.8 °F 57.2 °F 29.8 in WNW 1.9 mph 3.7 mph 89% 0 in 0.00 W/m2 unknown
04:53 60.8 °F 57.2 °F 29.8 in NW 0.6 mph 2.5 mph 89% 0 in 0.00 W/m2 unknown
04:58 60.8 °F 57.2 °F 29.8 in West 1.2 mph 3.1 mph 89% 0 in 0.00 W/m2 unknown
05:04 60.8 °F 57.2 °F 29.8 in WNW 2.5 mph 3.7 mph 89% 0 in 0.00 W/m2 unknown
05:09 60.8 °F 57.2 °F 29.8 in WNW 2.5 mph 3.7 mph 88% 0 in 0.00 W/m2 unknown
05:14 60.8 °F 57.2 °F 29.8 in NW 3.1 mph 3.7 mph 88% 0 in 0.00 W/m2 unknown
05:19 60.8 °F 57.2 °F 29.8 in NW 2.5 mph 3.7 mph 87% 0 in 0.00 W/m2 unknown
05:24 60.8 °F 57.2 °F 29.8 in North 2.5 mph 3.7 mph 87% 0 in 0.00 W/m2 unknown
05:29 60.8 °F 57.2 °F 29.8 in ENE 3.1 mph 3.7 mph 87% 0 in 0.00 W/m2 unknown
05:34 60.8 °F 57.2 °F 29.8 in NE 3.1 mph 3.7 mph 87% 0 in 0.00 W/m2 unknown
05:39 60.8 °F 57.2 °F 29.8 in NE 3.7 mph 5 mph 87% 0 in 5.00 W/m2 unknown
05:44 60.8 °F 57.2 °F 29.8 in NE 3.7 mph 5 mph 87% 0 in 7.00 W/m2 unknown
05:49 60.8 °F 57.2 °F 29.8 in ENE 3.7 mph 5 mph 87% 0 in 9.00 W/m2 unknown
05:54 60.8 °F 55.4 °F 29.8 in NE 3.1 mph 3.7 mph 86% 0 in 11.00 W/m2 unknown
05:59 60.8 °F 57.2 °F 29.8 in ENE 2.5 mph 3.7 mph 87% 0 in 14.00 W/m2 unknown
06:03 60.8 °F 57.2 °F 29.8 in ENE 2.5 mph 3.7 mph 87% 0 in 14.00 W/m2 unknown
06:09 60.8 °F 57.2 °F 29.8 in ENE 2.5 mph 3.7 mph 87% 0 in 14.00 W/m2 unknown
06:13 60.8 °F 57.2 °F 29.8 in NE 3.1 mph 3.7 mph 87% 0 in 19.00 W/m2 unknown
06:19 60.8 °F 57.2 °F 29.8 in NNE 3.1 mph 3.7 mph 88% 0 in 25.00 W/m2 unknown
06:24 60.8 °F 57.2 °F 29.8 in NE 2.5 mph 4.3 mph 88% 0 in 39.00 W/m2 unknown
06:29 62.6 °F 59 °F 29.8 in NE 3.1 mph 5 mph 88% 0 in 44.00 W/m2 unknown
06:34 62.6 °F 59 °F 29.8 in NE 3.7 mph 6.8 mph 88% 0 in 47.00 W/m2 unknown
06:39 62.6 °F 59 °F 29.8 in NNE 5 mph 6.8 mph 89% 0 in 54.00 W/m2 unknown
06:44 62.6 °F 59 °F 29.8 in NE 5 mph 6.8 mph 89% 0 in 62.00 W/m2 unknown
06:49 62.6 °F 59 °F 29.8 in NE 5 mph 6.8 mph 90% 0 in 62.00 W/m2 unknown
06:54 62.6 °F 59 °F 29.8 in NE 5.6 mph 6.8 mph 90% 0 in 79.00 W/m2 unknown
06:59 62.6 °F 59 °F 29.8 in NE 5 mph 6.8 mph 90% 0 in 125.00 W/m2 unknown
07:04 62.6 °F 59 °F 29.8 in NE 5 mph 6.8 mph 90% 0 in 130.00 W/m2 unknown
07:09 64.4 °F 60.8 °F 29.8 in NNE 5 mph 8.1 mph 89% 0 in 146.00 W/m2 unknown
07:14 64.4 °F 60.8 °F 29.8 in NNE 5.6 mph 8.1 mph 89% 0 in 158.00 W/m2 unknown
07:18 64.4 °F 60.8 °F 29.8 in NE 5.6 mph 8.1 mph 89% 0 in 160.00 W/m2 unknown
07:24 64.4 °F 60.8 °F 29.8 in NE 5 mph 8.1 mph 89% 0 in 167.00 W/m2 unknown
07:29 64.4 °F 60.8 °F 29.8 in ENE 5 mph 8.1 mph 89% 0 in 197.00 W/m2 unknown
07:34 64.4 °F 60.8 °F 29.8 in ENE 5.6 mph 9.3 mph 88% 0 in 209.00 W/m2 unknown
07:39 66.2 °F 62.6 °F 29.8 in ENE 5.6 mph 9.3 mph 88% 0 in 230.00 W/m2 unknown
07:44 66.2 °F 62.6 °F 29.8 in ENE 6.2 mph 8.7 mph 88% 0 in 246.00 W/m2 unknown
07:49 66.2 °F 62.6 °F 29.8 in ENE 6.2 mph 11.8 mph 87% 0 in 255.00 W/m2 unknown
07:54 66.2 °F 62.6 °F 29.8 in ENE 7.5 mph 11.8 mph 86% 0 in 264.00 W/m2 unknown
07:59 68 °F 62.6 °F 29.8 in ENE 7.5 mph 11.8 mph 86% 0 in 283.00 W/m2 unknown
08:04 68 °F 62.6 °F 29.8 in ENE 8.1 mph 11.8 mph 85% 0 in 297.00 W/m2 unknown
08:09 68 °F 62.6 °F 29.8 in ENE 8.7 mph 13.7 mph 84% 0 in 315.00 W/m2 unknown
08:14 68 °F 64.4 °F 29.8 in ENE 8.7 mph 14.3 mph 84% 0 in 332.00 W/m2 unknown
08:19 68 °F 64.4 °F 29.8 in ENE 9.3 mph 14.3 mph 84% 0 in 348.00 W/m2 unknown
08:24 69.8 °F 64.4 °F 29.8 in ENE 8.7 mph 13 mph 83% 0 in 364.00 W/m2 unknown
08:29 69.8 °F 62.6 °F 29.8 in East 8.7 mph 13 mph 82% 0 in 387.00 W/m2 unknown
08:34 69.8 °F 64.4 °F 29.8 in NE 8.7 mph 13 mph 82% 0 in 410.00 W/m2 unknown
08:39 69.8 °F 64.4 °F 29.8 in ENE 8.7 mph 14.9 mph 82% 0 in 427.00 W/m2 unknown
08:44 69.8 °F 64.4 °F 29.8 in East 8.7 mph 14.9 mph 81% 0 in 427.00 W/m2 unknown
08:49 69.8 °F 64.4 °F 29.8 in East 9.9 mph 14.3 mph 81% 0 in 454.00 W/m2 unknown
08:54 69.8 °F 64.4 °F 29.8 in East 9.3 mph 13 mph 81% 0 in 468.00 W/m2 unknown
08:59 71.6 °F 64.4 °F 29.8 in ENE 8.1 mph 13 mph 80% 0 in 476.00 W/m2 unknown
09:04 71.6 °F 64.4 °F 29.8 in East 9.3 mph 11.8 mph 80% 0 in 487.00 W/m2 unknown
09:09 71.6 °F 64.4 °F 29.8 in East 8.1 mph 11.8 mph 80% 0 in 503.00 W/m2 unknown
09:14 71.6 °F 64.4 °F 29.8 in ESE 8.7 mph 14.3 mph 80% 0 in 510.00 W/m2 unknown
09:19 71.6 °F 64.4 °F 29.8 in East 9.3 mph 14.3 mph 79% 0 in 522.00 W/m2 unknown
09:24 71.6 °F 64.4 °F 29.8 in East 9.9 mph 14.3 mph 78% 0 in 540.00 W/m2 unknown
09:29 71.6 °F 64.4 °F 29.8 in East 9.9 mph 14.3 mph 78% 0 in 548.00 W/m2 unknown
09:34 71.6 °F 64.4 °F 29.8 in East 11.2 mph 14.9 mph 77% 0 in 566.00 W/m2 unknown
09:39 71.6 °F 64.4 °F 29.8 in ESE 11.8 mph 14.9 mph 76% 0 in 577.00 W/m2 unknown
09:44 73.4 °F 64.4 °F 29.8 in East 11.8 mph 14.9 mph 76% 0 in 563.00 W/m2 unknown
09:49 73.4 °F 64.4 °F 29.8 in SE 8.7 mph 14.9 mph 76% 0 in 564.00 W/m2 unknown
09:54 73.4 °F 64.4 °F 29.8 in East 6.8 mph 10.6 mph 76% 0 in 591.00 W/m2 unknown
09:59 73.4 °F 64.4 °F 29.8 in ESE 8.1 mph 11.8 mph 75% 0 in 605.00 W/m2 unknown
10:04 73.4 °F 66.2 °F 29.8 in SE 8.1 mph 11.8 mph 76% 0 in 613.00 W/m2 unknown
10:09 73.4 °F 66.2 °F 29.8 in SE 6.2 mph 8.7 mph 76% 0 in 624.00 W/m2 unknown
10:14 73.4 °F 66.2 °F 29.8 in South 4.3 mph 8.1 mph 76% 0 in 645.00 W/m2 unknown
10:19 73.4 °F 66.2 °F 29.8 in SE 7.5 mph 10.6 mph 76% 0 in 661.00 W/m2 unknown
10:24 73.4 °F 66.2 °F 29.8 in SSE 8.1 mph 11.8 mph 77% 0 in 698.00 W/m2 unknown
10:29 73.4 °F 66.2 °F 29.8 in SE 6.8 mph 11.8 mph 77% 0 in 717.00 W/m2 unknown
10:34 73.4 °F 66.2 °F 29.8 in ESE 5.6 mph 11.8 mph 77% 0 in 729.00 W/m2 unknown
10:39 73.4 °F 66.2 °F 29.8 in ESE 6.2 mph 10.6 mph 77% 0 in 710.00 W/m2 unknown
10:44 75.2 °F 66.2 °F 29.8 in SSE 5 mph 8.7 mph 77% 0 in 759.00 W/m2 unknown
10:49 75.2 °F 66.2 °F 29.8 in ESE 6.8 mph 10.6 mph 75% 0 in 722.00 W/m2 unknown
10:54 75.2 °F 66.2 °F 29.8 in SE 6.8 mph 10.6 mph 75% 0 in 682.00 W/m2 unknown
10:59 75.2 °F 66.2 °F 29.8 in ESE 5.6 mph 9.3 mph 76% 0 in 729.00 W/m2 unknown
11:04 75.2 °F 66.2 °F 29.8 in East 6.2 mph 8.7 mph 76% 0 in 766.00 W/m2 unknown
11:09 75.2 °F 66.2 °F 29.8 in ESE 6.8 mph 9.3 mph 74% 0 in 766.00 W/m2 unknown
11:14 75.2 °F 66.2 °F 29.8 in ESE 6.8 mph 9.3 mph 74% 0 in 754.00 W/m2 unknown
11:19 77 °F 68 °F 29.8 in NE 6.2 mph 8.7 mph 74% 0 in 773.00 W/m2 unknown
11:24 77 °F 68 °F 29.8 in East 6.2 mph 8.1 mph 73% 0 in 773.00 W/m2 unknown
11:29 77 °F 68 °F 29.8 in ESE 5 mph 6.8 mph 73% 0 in 759.00 W/m2 unknown
11:34 77 °F 66.2 °F 29.8 in SE 4.3 mph 6.8 mph 70% 0 in 770.00 W/m2 unknown
11:39 77 °F 66.2 °F 29.8 in SE 4.3 mph 6.8 mph 68% 0 in 731.00 W/m2 unknown
11:44 77 °F 64.4 °F 29.8 in East 5 mph 6.8 mph 67% 0 in 724.00 W/m2 unknown
11:49 77 °F 66.2 °F 29.8 in East 5 mph 6.8 mph 68% 0 in 766.00 W/m2 unknown
11:54 77 °F 66.2 °F 29.8 in ESE 5 mph 6.2 mph 67% 0 in 874.00 W/m2 unknown
11:59 78.8 °F 66.2 °F 29.8 in ENE 4.3 mph 8.1 mph 68% 0 in 840.00 W/m2 unknown
12:04 78.8 °F 66.2 °F 29.8 in ESE 4.3 mph 9.3 mph 68% 0 in 833.00 W/m2 unknown
12:09 78.8 °F 66.2 °F 29.8 in ENE 5 mph 9.3 mph 67% 0 in 821.00 W/m2 unknown
12:14 78.8 °F 66.2 °F 29.8 in ESE 5.6 mph 8.7 mph 66% 0 in 819.00 W/m2 unknown
12:19 78.8 °F 66.2 °F 29.8 in ESE 5 mph 8.1 mph 66% 0 in 803.00 W/m2 unknown
12:24 78.8 °F 66.2 °F 29.8 in ENE 5.6 mph 10.6 mph 65% 0 in 844.00 W/m2 unknown
12:29 78.8 °F 66.2 °F 29.8 in East 6.2 mph 10.6 mph 66% 0 in 842.00 W/m2 unknown
12:34 78.8 °F 68 °F 29.8 in ENE 6.2 mph 11.8 mph 68% 0 in 824.00 W/m2 unknown
12:39 78.8 °F 66.2 °F 29.8 in ENE 6.2 mph 11.8 mph 66% 0 in 809.00 W/m2 unknown
12:44 78.8 °F 66.2 °F 29.8 in ENE 6.2 mph 11.8 mph 64% 0 in 853.00 W/m2 unknown
12:49 78.8 °F 66.2 °F 29.8 in ESE 6.2 mph 8.1 mph 63% 0 in 853.00 W/m2 unknown
12:54 78.8 °F 66.2 °F 29.8 in ENE 5 mph 9.9 mph 63% 0 in 958.00 W/m2 unknown
12:59 78.8 °F 66.2 °F 29.8 in ENE 5 mph 9.9 mph 63% 0 in 970.00 W/m2 unknown
13:04 80.6 °F 66.2 °F 29.8 in SE 5.6 mph 8.7 mph 63% 0 in 956.00 W/m2 unknown
13:09 80.6 °F 64.4 °F 29.8 in ESE 5.6 mph 8.1 mph 60% 0 in 759.00 W/m2 unknown
13:14 80.6 °F 64.4 °F 29.8 in SE 5 mph 8.1 mph 62% 0 in 712.00 W/m2 unknown
13:19 80.6 °F 66.2 °F 29.8 in ESE 5 mph 6.8 mph 62% 0 in 838.00 W/m2 unknown
13:24 78.8 °F 66.2 °F 29.8 in ESE 5 mph 8.7 mph 65% 0 in 838.00 W/m2 unknown
13:29 80.6 °F 66.2 °F 29.8 in ESE 5 mph 9.3 mph 65% 0 in 803.00 W/m2 unknown
13:34 80.6 °F 66.2 °F 29.8 in ENE 4.3 mph 9.3 mph 61% 0 in 686.00 W/m2 unknown
13:39 80.6 °F 66.2 °F 29.8 in ESE 5 mph 6.8 mph 61% 0 in 816.00 W/m2 unknown
13:44 80.6 °F 66.2 °F 29.8 in East 4.3 mph 6.8 mph 62% 0 in 868.00 W/m2 unknown
13:49 80.6 °F 64.4 °F 29.8 in ESE 5 mph 6.8 mph 59% 0 in 933.00 W/m2 unknown
13:54 80.6 °F 64.4 °F 29.8 in East 5 mph 6.8 mph 57% 0 in 837.00 W/m2 unknown
13:59 80.6 °F 64.4 °F 29.8 in SSE 4.3 mph 6.8 mph 58% 0 in 867.00 W/m2 unknown
14:04 80.6 °F 64.4 °F 29.8 in ESE 4.3 mph 6.8 mph 57% 0 in 867.00 W/m2 unknown
14:09 80.6 °F 64.4 °F 29.8 in ESE 5 mph 6.8 mph 56% 0 in 775.00 W/m2 unknown
14:12 80.6 °F 64.4 °F 29.8 in SE 3.1 mph 6.2 mph 56% 0 in 738.00 W/m2 unknown
14:19 80.6 °F 64.4 °F 29.8 in ESE 3.7 mph 6.8 mph 57% 0 in 905.00 W/m2 unknown
14:24 82.4 °F 64.4 °F 29.8 in SE 4.3 mph 6.8 mph 57% 0 in 998.00 W/m2 unknown
14:29 82.4 °F 64.4 °F 29.8 in SE 5 mph 6.8 mph 56% 0 in 1030.00 W/m2 unknown
14:34 82.4 °F 64.4 °F 29.8 in SE 5 mph 6.8 mph 55% 0 in 1030.00 W/m2 unknown
14:39 82.4 °F 62.6 °F 29.8 in SE 5.6 mph 8.7 mph 53% 0 in 802.00 W/m2 unknown
14:44 82.4 °F 62.6 °F 29.8 in SSE 6.2 mph 8.7 mph 51% 0 in 591.00 W/m2 unknown
14:49 82.4 °F 62.6 °F 29.8 in South 6.2 mph 8.1 mph 52% 0 in 613.00 W/m2 unknown
14:54 82.4 °F 62.6 °F 29.7 in South 3.1 mph 6.8 mph 51% 0 in 568.00 W/m2 unknown
14:59 82.4 °F 62.6 °F 29.7 in South 2.5 mph 6.8 mph 54% 0 in 584.00 W/m2 unknown
15:04 82.4 °F 62.6 °F 29.7 in SE 2.5 mph 6.8 mph 53% 0 in 559.00 W/m2 unknown
15:09 82.4 °F 62.6 °F 29.7 in SSE 3.1 mph 5 mph 54% 0 in 599.00 W/m2 unknown
15:14 82.4 °F 62.6 °F 29.7 in ESE 4.3 mph 6.8 mph 54% 0 in 557.00 W/m2 unknown
15:19 82.4 °F 62.6 °F 29.7 in SSE 5 mph 6.8 mph 53% 0 in 515.00 W/m2 unknown
15:24 82.4 °F 62.6 °F 29.7 in SSE 3.1 mph 6.8 mph 54% 0 in 436.00 W/m2 unknown
15:29 82.4 °F 60.8 °F 29.7 in SE 2.5 mph 3.7 mph 50% 0 in 490.00 W/m2 unknown
15:34 82.4 °F 62.6 °F 29.7 in ESE 3.1 mph 3.7 mph 52% 0 in 490.00 W/m2 unknown
15:39 82.4 °F 62.6 °F 29.7 in ESE 3.1 mph 6.2 mph 52% 0 in 536.00 W/m2 unknown
15:44 82.4 °F 62.6 °F 29.7 in East 3.7 mph 6.2 mph 53% 0 in 545.00 W/m2 unknown
15:49 80.6 °F 62.6 °F 29.7 in ENE 3.1 mph 6.2 mph 52% 0 in 476.00 W/m2 unknown
15:54 82.4 °F 64.4 °F 29.7 in East 3.7 mph 6.8 mph 56% 0 in 476.00 W/m2 unknown
15:59 82.4 °F 64.4 °F 29.7 in ESE 5 mph 6.8 mph 55% 0 in 466.00 W/m2 unknown
16:04 80.6 °F 62.6 °F 29.7 in ESE 5 mph 6.8 mph 55% 0 in 640.00 W/m2 unknown
16:09 82.4 °F 64.4 °F 29.7 in SE 3.1 mph 5 mph 58% 0 in 698.00 W/m2 unknown
16:14 84.2 °F 64.4 °F 29.7 in SE 3.7 mph 8.1 mph 55% 0 in 909.00 W/m2 unknown
16:19 84.2 °F 64.4 °F 29.7 in SSE 5.6 mph 8.1 mph 53% 0 in 900.00 W/m2 unknown
16:24 84.2 °F 62.6 °F 29.7 in SE 5 mph 8.1 mph 50% 0 in 717.00 W/m2 unknown
16:29 82.4 °F 62.6 °F 29.7 in SE 5 mph 6.8 mph 50% 0 in 619.00 W/m2 unknown
16:34 82.4 °F 62.6 °F 29.7 in SE 5 mph 6.8 mph 50% 0 in 612.00 W/m2 unknown
16:39 82.4 °F 62.6 °F 29.7 in ESE 5 mph 8.1 mph 51% 0 in 612.00 W/m2 unknown
16:44 82.4 °F 60.8 °F 29.7 in East 5 mph 8.1 mph 50% 0 in 492.00 W/m2 unknown
16:49 82.4 °F 60.8 °F 29.7 in East 5 mph 8.1 mph 50% 0 in 564.00 W/m2 unknown
16:54 82.4 °F 62.6 °F 29.7 in East 5.6 mph 8.1 mph 51% 0 in 422.00 W/m2 unknown
16:59 82.4 °F 62.6 °F 29.7 in ESE 6.2 mph 8.1 mph 51% 0 in 302.00 W/m2 unknown
17:04 80.6 °F 62.6 °F 29.7 in ESE 6.2 mph 8.1 mph 52% 0 in 271.00 W/m2 unknown
17:09 80.6 °F 62.6 °F 29.7 in SSE 3.1 mph 6.8 mph 52% 0 in 227.00 W/m2 unknown
17:14 80.6 °F 60.8 °F 29.7 in SSE 3.7 mph 6.2 mph 51% 0 in 232.00 W/m2 unknown
17:19 80.6 °F 62.6 °F 29.7 in ESE 4.3 mph 6.2 mph 53% 0 in 241.00 W/m2 unknown
17:24 80.6 °F 62.6 °F 29.7 in SE 3.1 mph 6.2 mph 54% 0 in 246.00 W/m2 unknown
17:29 80.6 °F 62.6 °F 29.7 in SSE 1.9 mph 3.7 mph 54% 0 in 253.00 W/m2 unknown
17:34 80.6 °F 62.6 °F 29.7 in SE 2.5 mph 3.7 mph 54% 0 in 279.00 W/m2 unknown
17:39 80.6 °F 62.6 °F 29.7 in SE 2.5 mph 5 mph 54% 0 in 308.00 W/m2 unknown
17:44 80.6 °F 62.6 °F 29.7 in ESE 2.5 mph 5 mph 54% 0 in 352.00 W/m2 unknown
17:49 80.6 °F 62.6 °F 29.7 in ESE 2.5 mph 5 mph 55% 0 in 236.00 W/m2 unknown
17:54 80.6 °F 62.6 °F 29.7 in SSE 3.7 mph 6.8 mph 56% 0 in 202.00 W/m2 unknown
17:59 80.6 °F 62.6 °F 29.7 in SSE 3.7 mph 6.8 mph 56% 0 in 172.00 W/m2 unknown
18:04 80.6 °F 64.4 °F 29.7 in SSE 3.1 mph 6.8 mph 57% 0 in 139.00 W/m2 unknown
18:09 80.6 °F 62.6 °F 29.7 in SSE 3.1 mph 5 mph 57% 0 in 107.00 W/m2 unknown
18:14 80.6 °F 64.4 °F 29.7 in SSE 3.1 mph 5 mph 58% 0 in 86.00 W/m2 unknown
18:19 78.8 °F 64.4 °F 29.7 in SE 3.1 mph 6.8 mph 58% 0 in 83.00 W/m2 unknown
18:24 78.8 °F 62.6 °F 29.7 in ESE 3.7 mph 6.8 mph 59% 0 in 79.00 W/m2 unknown
18:29 78.8 °F 62.6 °F 29.7 in ESE 3.1 mph 6.8 mph 59% 0 in 72.00 W/m2 unknown
18:34 78.8 °F 62.6 °F 29.7 in SE 3.1 mph 5 mph 59% 0 in 63.00 W/m2 unknown
18:39 78.8 °F 64.4 °F 29.7 in SE 3.1 mph 5 mph 60% 0 in 62.00 W/m2 unknown
18:44 78.8 °F 64.4 °F 29.7 in ESE 2.5 mph 5 mph 60% 0 in 54.00 W/m2 unknown
18:49 78.8 °F 64.4 °F 29.7 in ESE 2.5 mph 3.7 mph 61% 0 in 47.00 W/m2 unknown
18:54 78.8 °F 64.4 °F 29.7 in ESE 1.9 mph 3.7 mph 61% 0 in 42.00 W/m2 unknown
18:59 78.8 °F 64.4 °F 29.7 in SE 2.5 mph 3.7 mph 61% 0 in 33.00 W/m2 unknown
19:04 78.8 °F 64.4 °F 29.7 in SSE 2.5 mph 3.7 mph 61% 0 in 21.00 W/m2 unknown
19:09 78.8 °F 64.4 °F 29.7 in South 1.9 mph 3.1 mph 61% 0 in 12.00 W/m2 unknown
19:14 78.8 °F 62.6 °F 29.7 in South 1.9 mph 3.7 mph 61% 0 in 9.00 W/m2 unknown
19:19 78.8 °F 64.4 °F 29.7 in SSW 3.1 mph 5 mph 62% 0 in 7.00 W/m2 unknown
19:24 78.8 °F 64.4 °F 29.7 in SW 3.7 mph 6.2 mph 62% 0 in 5.00 W/m2 unknown
19:29 78.8 °F 66.2 °F 29.7 in SSW 4.3 mph 6.8 mph 68% 0 in 7.00 W/m2 unknown
19:34 77 °F 66.2 °F 29.7 in WSW 5.6 mph 8.1 mph 74% 0 in 9.00 W/m2 unknown
19:39 75.2 °F 66.2 °F 29.7 in West 7.5 mph 9.3 mph 79% 0 in 14.00 W/m2 unknown
19:44 73.4 °F 66.2 °F 29.7 in West 7.5 mph 9.3 mph 81% 0 in 16.00 W/m2 unknown
19:49 71.6 °F 66.2 °F 29.7 in WNW 6.8 mph 9.3 mph 81% 0 in 16.00 W/m2 unknown
19:54 71.6 °F 66.2 °F 29.7 in WNW 6.2 mph 8.7 mph 83% 0 in 16.00 W/m2 unknown
19:59 71.6 °F 66.2 °F 29.7 in WNW 3.7 mph 5 mph 84% 0 in 16.00 W/m2 unknown
20:04 71.6 °F 66.2 °F 29.7 in WNW 3.1 mph 5 mph 85% 0 in 14.00 W/m2 unknown
20:09 69.8 °F 66.2 °F 29.7 in WNW 2.5 mph 3.7 mph 86% 0 in 11.00 W/m2 unknown
20:14 69.8 °F 66.2 °F 29.7 in NW 1.9 mph 3.7 mph 86% 0 in 7.00 W/m2 unknown
20:19 69.8 °F 66.2 °F 29.7 in ENE 2.5 mph 5 mph 87% 0 in 0.00 W/m2 unknown
20:24 69.8 °F 66.2 °F 29.7 in East 4.3 mph 8.1 mph 88% 0 in 5.00 W/m2 unknown
20:29 69.8 °F 66.2 °F 29.7 in East 5.6 mph 8.1 mph 88% 0 in 5.00 W/m2 unknown
20:34 69.8 °F 66.2 °F 29.7 in ESE 5 mph 8.1 mph 88% 0 in 5.00 W/m2 unknown
20:39 69.8 °F 66.2 °F 29.7 in ESE 3.1 mph 6.8 mph 88% 0 in 5.00 W/m2 unknown
20:44 69.8 °F 66.2 °F 29.7 in SE 2.5 mph 5 mph 88% 0 in 0.00 W/m2 unknown
20:49 69.8 °F 66.2 °F 29.7 in ESE 2.5 mph 3.7 mph 88% 0 in 0.00 W/m2 unknown
20:54 69.8 °F 66.2 °F 29.7 in East 3.1 mph 3.7 mph 88% 0 in 0.00 W/m2 unknown
20:59 69.8 °F 66.2 °F 29.7 in SE 3.1 mph 3.7 mph 88% 0 in 0.00 W/m2 unknown
21:04 69.8 °F 66.2 °F 29.7 in South 2.5 mph 3.7 mph 88% 0 in 0.00 W/m2 unknown
21:09 69.8 °F 66.2 °F 29.7 in SSW 2.5 mph 3.7 mph 88% 0 in 0.00 W/m2 unknown
21:14 69.8 °F 66.2 °F 29.7 in SW 2.5 mph 3.7 mph 88% 0 in 0.00 W/m2 unknown
21:19 69.8 °F 66.2 °F 29.7 in WSW 2.5 mph 3.7 mph 87% 0 in 0.00 W/m2 unknown
21:24 69.8 °F 66.2 °F 29.7 in WSW 3.1 mph 3.7 mph 87% 0 in 0.00 W/m2 unknown
21:29 69.8 °F 66.2 °F 29.7 in WSW 2.5 mph 3.7 mph 88% 0 in 0.00 W/m2 unknown
21:34 69.8 °F 66.2 °F 29.7 in West 1.9 mph 3.7 mph 88% 0 in 0.00 W/m2 unknown
21:39 69.8 °F 66.2 °F 29.7 in West 2.5 mph 3.7 mph 88% 0 in 0.00 W/m2 unknown
21:44 69.8 °F 66.2 °F 29.7 in West 1.9 mph 3.7 mph 89% 0 in 0.00 W/m2 unknown
21:49 69.8 °F 66.2 °F 29.7 in SSE 1.2 mph 3.1 mph 89% 0 in 0.00 W/m2 unknown
21:54 69.8 °F 66.2 °F 29.7 in ESE 1.2 mph 5 mph 89% 0 in 0.00 W/m2 unknown
21:59 69.8 °F 66.2 °F 29.7 in East 3.1 mph 5 mph 89% 0 in 0.00 W/m2 unknown
22:04 69.8 °F 66.2 °F 29.7 in NE 3.1 mph 5 mph 88% 0 in 0.00 W/m2 unknown
22:09 69.8 °F 64.4 °F 29.7 in North 1.9 mph 5 mph 88% 0 in 0.00 W/m2 unknown
22:14 68 °F 64.4 °F 29.7 in WNW 4.3 mph 6.8 mph 87% 0 in 0.00 W/m2 unknown
22:17 68 °F 64.4 °F 29.7 in WNW 5 mph 6.8 mph 84% 0 in 0.00 W/m2 unknown
22:24 68 °F 62.6 °F 29.7 in NW 5 mph 5.6 mph 88% 0 in 0.00 W/m2 unknown
22:29 68 °F 62.6 °F 29.7 in NW 3.1 mph 6.2 mph 88% 0 in 0.00 W/m2 unknown
22:34 66.2 °F 62.6 °F 29.7 in NNE 3.1 mph 3.7 mph 89% 0 in 0.00 W/m2 unknown
22:39 66.2 °F 62.6 °F 29.7 in NW 3.1 mph 3.7 mph 89% 0 in 0.00 W/m2 unknown
22:44 66.2 °F 62.6 °F 29.7 in NW 3.1 mph 5 mph 90% 0 in 0.00 W/m2 unknown
22:49 66.2 °F 62.6 °F 29.7 in NW 4.3 mph 6.8 mph 90% 0 in 0.00 W/m2 unknown
22:54 66.2 °F 62.6 °F 29.7 in NW 5 mph 6.8 mph 90% 0 in 0.00 W/m2 unknown
22:59 66.2 °F 62.6 °F 29.7 in North 5 mph 6.8 mph 91% 0 in 0.00 W/m2 unknown
23:04 64.4 °F 62.6 °F 29.7 in NNW 5 mph 6.8 mph 92% 0 in 0.00 W/m2 unknown
23:09 64.4 °F 62.6 °F 29.7 in NNW 4.3 mph 6.2 mph 92% 0 in 0.00 W/m2 unknown
23:14 64.4 °F 62.6 °F 29.7 in NNW 5 mph 6.2 mph 93% 0 in 0.00 W/m2 unknown
23:19 64.4 °F 62.6 °F 29.7 in NNW 3.1 mph 6.2 mph 93% 0 in 0.00 W/m2 unknown
23:24 64.4 °F 62.6 °F 29.7 in NW 2.5 mph 3.7 mph 93% 0 in 0.00 W/m2 unknown
23:29 64.4 °F 62.6 °F 29.7 in NW 1.9 mph 3.7 mph 93% 0 in 0.00 W/m2 unknown
23:34 64.4 °F 62.6 °F 29.7 in WNW 1.2 mph 3.7 mph 93% 0 in 0.00 W/m2 unknown
23:39 66.2 °F 62.6 °F 29.7 in WNW 1.2 mph 3.7 mph 93% 0 in 0.00 W/m2 unknown
23:44 66.2 °F 62.6 °F 29.7 in NW 1.2 mph 3.7 mph 93% 0 in 0.00 W/m2 unknown
23:48 64.4 °F 62.6 °F 29.7 in ESE 1.9 mph 3.7 mph 93% 0 in 0.00 W/m2 unknown
23:54 64.4 °F 62.6 °F 29.7 in ESE 1.9 mph 3.1 mph 93% 0 in 0.00 W/m2 unknown
23:59 64.4 °F 62.6 °F 29.7 in ESE 1.2 mph 2.5 mph 93% 0 in 0.00 W/m2 unknown
Stazione Meteorologica MeteoMincio Rivalta s/M (MN)
Con i complimenti di Weather Underground - 4 mb



METEO PILLOLE
La più ampia escursione annua
Verkhojansk, Russia:
L'escursione termica va da - 68 a 34,5°C nel corso di un anno.
Share

Non seguire questo link o sarai bannato dal sito!